createdAt,value
2022-11-01T00:01:52.379Z,7.17
2022-11-01T00:05:02.154Z,7.32
2022-11-01T00:08:10.331Z,7.33
2022-11-01T00:11:19.690Z,7.31
2022-11-01T00:14:28.188Z,7.21
2022-11-01T00:17:37.033Z,7.11
2022-11-01T00:20:46.955Z,7.14
2022-11-01T00:23:55.512Z,7.20
2022-11-01T00:27:03.793Z,7.19
2022-11-01T00:30:12.832Z,7.23
2022-11-01T00:33:21.070Z,7.30
2022-11-01T00:36:30.890Z,6.83
2022-11-01T00:39:39.145Z,7.07
2022-11-01T00:42:47.332Z,7.30
2022-11-01T00:45:55.586Z,7.25
2022-11-01T00:49:03.958Z,7.04
2022-11-01T00:52:13.492Z,6.99
2022-11-01T00:55:21.856Z,7.13
2022-11-01T00:58:30.735Z,7.15
2022-11-01T01:01:39.144Z,7.23
2022-11-01T01:04:48.845Z,7.33
2022-11-01T01:07:58.720Z,7.31
2022-11-01T01:11:07.025Z,7.40
2022-11-01T01:14:15.247Z,7.50
2022-11-01T01:17:23.535Z,7.56
2022-11-01T01:20:32.046Z,7.57
2022-11-01T01:23:41.669Z,7.58
2022-11-01T01:26:49.929Z,7.58
2022-11-01T01:29:58.135Z,7.71
2022-11-01T01:33:06.379Z,7.81
2022-11-01T01:36:16.482Z,7.82
2022-11-01T01:39:26.041Z,7.74
2022-11-01T01:42:38.002Z,7.69
2022-11-01T01:45:46.502Z,7.59
2022-11-01T01:49:00.168Z,7.64
2022-11-01T01:52:09.442Z,7.55
2022-11-01T01:55:28.258Z,7.58
2022-11-01T01:58:43.214Z,7.57
2022-11-01T02:01:51.605Z,7.70
2022-11-01T02:05:09.730Z,7.57
2022-11-01T02:08:27.792Z,7.57
2022-11-01T02:11:37.569Z,7.56
2022-11-01T02:14:46.977Z,7.63
2022-11-01T02:18:14.302Z,7.76
2022-11-01T02:21:51.373Z,7.96
2022-11-01T02:25:32.154Z,7.76
2022-11-01T02:29:09.939Z,7.53
2022-11-01T02:32:26.941Z,7.52
2022-11-01T02:35:49.218Z,7.41
2022-11-01T02:39:04.385Z,7.24
2022-11-01T02:42:21.286Z,7.12
2022-11-01T02:45:37.913Z,7.12
2022-11-01T02:48:49.293Z,7.13
2022-11-01T02:52:00.276Z,7.03
2022-11-01T02:55:29.874Z,7.10
2022-11-01T02:58:39.231Z,6.94
2022-11-01T03:01:54.396Z,6.82
2022-11-01T03:05:04.288Z,6.88
2022-11-01T03:08:18.038Z,6.80
2022-11-01T03:11:37.434Z,6.78
2022-11-01T03:14:57.035Z,6.78
2022-11-01T03:18:14.312Z,6.85
2022-11-01T03:21:29.421Z,6.88
2022-11-01T03:24:49.598Z,6.86
2022-11-01T03:28:01.544Z,6.97
2022-11-01T03:31:15.094Z,7.08
2022-11-01T03:34:26.299Z,7.15
2022-11-01T03:37:42.202Z,7.16
2022-11-01T03:40:57.420Z,7.31
2022-11-01T03:44:06.574Z,7.35
2022-11-01T03:47:16.326Z,7.54
2022-11-01T03:50:27.569Z,7.78
2022-11-01T03:53:37.132Z,7.48
2022-11-01T03:56:45.996Z,7.13
2022-11-01T03:59:54.372Z,6.96
2022-11-01T04:03:03.177Z,6.84
2022-11-01T04:06:12.145Z,6.78
2022-11-01T04:09:21.925Z,6.82
2022-11-01T04:12:30.208Z,7.03
2022-11-01T04:16:01.470Z,7.12
2022-11-01T04:19:27.183Z,7.05
2022-11-01T04:22:37.972Z,6.94
2022-11-01T04:25:48.359Z,7.03
2022-11-01T04:28:59.355Z,6.91
2022-11-01T04:32:08.115Z,6.86
2022-11-01T04:35:16.563Z,7.15
2022-11-01T04:38:24.980Z,6.94
2022-11-01T04:41:34.886Z,7.03
2022-11-01T04:44:43.052Z,7.18
2022-11-01T04:48:03.834Z,7.05
2022-11-01T04:51:12.786Z,7.09
2022-11-01T04:54:21.011Z,7.14
2022-11-01T04:57:30.633Z,7.51
2022-11-01T05:00:39.469Z,7.49
2022-11-01T05:03:49.762Z,7.31
2022-11-01T05:06:59.878Z,7.06
2022-11-01T05:10:10.315Z,6.94
2022-11-01T05:13:19.894Z,6.95
2022-11-01T05:16:28.174Z,6.86
2022-11-01T05:19:36.404Z,6.83
2022-11-01T05:22:44.606Z,6.84
2022-11-01T05:25:52.941Z,6.90
2022-11-01T05:29:09.134Z,6.92
2022-11-01T05:32:26.655Z,7.05
2022-11-01T05:35:36.578Z,7.13
2022-11-01T05:38:45.051Z,7.09
2022-11-01T05:41:55.575Z,7.16
2022-11-01T05:45:10.916Z,7.14
2022-11-01T05:48:19.311Z,7.17
2022-11-01T05:51:27.734Z,7.28
2022-11-01T05:54:36.538Z,7.33
2022-11-01T05:57:45.181Z,7.47
2022-11-01T06:01:00.670Z,7.49
2022-11-01T06:04:09.265Z,7.43
2022-11-01T06:07:17.500Z,7.48
2022-11-01T06:10:26.104Z,7.45
2022-11-01T06:13:35.241Z,7.48
2022-11-01T06:16:45.913Z,7.47
2022-11-01T06:19:54.209Z,7.44
2022-11-01T06:23:03.413Z,7.48
2022-11-01T06:26:11.653Z,7.56
2022-11-01T06:29:20.603Z,7.63
2022-11-01T06:32:30.462Z,7.77
2022-11-01T06:35:42.394Z,7.79
2022-11-01T06:38:51.133Z,7.84
2022-11-01T06:42:00.010Z,7.89
2022-11-01T06:45:10.680Z,8.12
2022-11-01T06:48:21.448Z,8.07
2022-11-01T06:51:30.345Z,8.16
2022-11-01T06:54:39.028Z,8.23
2022-11-01T06:57:56.061Z,8.46
2022-11-01T07:01:06.644Z,9.04
2022-11-01T07:04:16.572Z,9.00
2022-11-01T07:07:24.905Z,9.04
2022-11-01T07:10:33.578Z,9.18
2022-11-01T07:13:41.803Z,9.54
2022-11-01T07:16:50.061Z,9.98
2022-11-01T07:19:59.871Z,10.49
2022-11-01T07:23:12.487Z,11.05
2022-11-01T07:26:20.954Z,11.36
2022-11-01T07:29:32.216Z,11.71
2022-11-01T07:32:40.668Z,11.99
2022-11-01T07:35:52.424Z,12.18
2022-11-01T07:39:01.152Z,12.36
2022-11-01T07:42:09.385Z,12.45
2022-11-01T07:45:18.022Z,12.67
2022-11-01T07:48:26.307Z,12.80
2022-11-01T07:51:36.150Z,12.85
2022-11-01T07:54:44.308Z,12.96
2022-11-01T07:57:52.606Z,12.79
2022-11-01T08:01:02.206Z,12.81
2022-11-01T08:04:10.527Z,12.88
2022-11-01T08:07:20.355Z,12.92
2022-11-01T08:10:30.036Z,12.98
2022-11-01T08:13:38.816Z,13.19
2022-11-01T08:16:55.803Z,13.44
2022-11-01T08:20:09.335Z,13.79
2022-11-01T08:23:18.974Z,14.26
2022-11-01T08:26:28.313Z,14.74
2022-11-01T08:29:37.667Z,15.07
2022-11-01T08:32:46.370Z,15.07
2022-11-01T08:35:54.515Z,15.23
2022-11-01T08:39:04.312Z,15.39
2022-11-01T08:42:12.902Z,15.52
2022-11-01T08:45:21.237Z,15.45
2022-11-01T08:48:31.152Z,15.69
2022-11-01T08:51:41.230Z,15.96
2022-11-01T08:54:51.017Z,16.14
2022-11-01T08:58:01.057Z,16.29
2022-11-01T09:01:10.287Z,16.40
2022-11-01T09:04:19.290Z,16.81
2022-11-01T09:07:27.847Z,16.80
2022-11-01T09:10:37.584Z,16.89
2022-11-01T09:13:46.433Z,17.05
2022-11-01T09:16:54.879Z,17.16
2022-11-01T09:20:04.227Z,17.00
2022-11-01T09:23:12.475Z,17.13
2022-11-01T09:26:22.555Z,17.24
2022-11-01T09:29:30.977Z,17.05
2022-11-01T09:32:39.897Z,17.06
2022-11-01T09:35:56.697Z,17.03
2022-11-01T09:39:07.833Z,16.95
2022-11-01T09:42:26.341Z,16.98
2022-11-01T09:45:38.125Z,17.07
2022-11-01T09:48:47.741Z,17.33
2022-11-01T09:51:57.487Z,17.47
2022-11-01T09:55:14.864Z,17.88
2022-11-01T09:58:37.565Z,18.06
2022-11-01T10:02:07.237Z,18.29
2022-11-01T10:05:34.062Z,18.40
2022-11-01T10:09:00.352Z,18.34
2022-11-01T10:12:37.354Z,18.10
2022-11-01T10:16:02.201Z,18.39
2022-11-01T10:19:15.324Z,18.04
2022-11-01T10:22:33.289Z,18.15
2022-11-01T10:25:51.387Z,18.12
2022-11-01T10:29:09.006Z,17.96
2022-11-01T10:32:33.921Z,17.84
2022-11-01T10:35:46.751Z,18.06
2022-11-01T10:39:52.555Z,18.03
2022-11-01T10:42:36.372Z,18.24
2022-11-01T10:45:49.176Z,18.19
2022-11-01T10:49:05.797Z,18.20
2022-11-01T10:52:19.797Z,18.33
2022-11-01T10:55:40.162Z,18.08
2022-11-01T10:59:00.600Z,18.49
2022-11-01T11:02:19.209Z,18.88
2022-11-01T11:05:33.004Z,19.08
2022-11-01T11:08:46.544Z,18.96
2022-11-01T11:12:00.907Z,18.66
2022-11-01T11:15:21.156Z,18.68
2022-11-01T11:18:33.661Z,18.65
2022-11-01T11:21:45.612Z,18.76
2022-11-01T11:25:03.487Z,18.60
2022-11-01T11:28:27.845Z,18.87
2022-11-01T11:31:36.447Z,19.21
2022-11-01T11:34:53.056Z,19.43
2022-11-01T11:38:07.424Z,19.55
2022-11-01T11:41:30.677Z,19.15
2022-11-01T11:44:46.975Z,19.18
2022-11-01T11:47:58.541Z,19.33
2022-11-01T11:51:08.994Z,19.49
2022-11-01T11:54:26.055Z,19.24
2022-11-01T11:57:34.611Z,19.04
2022-11-01T12:00:50.057Z,18.77
2022-11-01T12:04:09.061Z,18.99
2022-11-01T12:07:32.740Z,18.83
2022-11-01T12:10:47.583Z,18.46
2022-11-01T12:14:04.298Z,18.13
2022-11-01T12:17:35.253Z,18.08
2022-11-01T12:20:44.451Z,18.13
2022-11-01T12:23:58.331Z,18.35
2022-11-01T12:27:19.498Z,18.26
2022-11-01T12:30:33.733Z,18.34
2022-11-01T12:33:50.462Z,18.14
2022-11-01T12:37:07.563Z,17.98
2022-11-01T12:40:22.558Z,18.00
2022-11-01T12:43:57.535Z,17.97
2022-11-01T12:47:19.053Z,18.16
2022-11-01T12:50:38.052Z,18.18
2022-11-01T12:53:54.826Z,18.17
2022-11-01T12:57:03.242Z,17.90
2022-11-01T13:00:16.637Z,17.29
2022-11-01T13:03:44.196Z,17.23
2022-11-01T13:07:30.414Z,17.06
2022-11-01T13:10:44.250Z,16.83
2022-11-01T13:14:22.400Z,16.78
2022-11-01T13:17:44.732Z,16.81
2022-11-01T13:21:07.596Z,16.76
2022-11-01T13:24:39.357Z,16.94
2022-11-01T13:28:04.348Z,17.01
2022-11-01T13:31:42.944Z,17.06
2022-11-01T13:35:36.975Z,16.83
2022-11-01T13:38:55.066Z,16.73
2022-11-01T13:42:11.158Z,16.67
2022-11-01T13:46:02.536Z,16.70
2022-11-01T13:49:58.696Z,16.64
2022-11-01T13:53:21.696Z,16.57
2022-11-01T13:56:37.010Z,16.60
2022-11-01T13:59:55.564Z,16.59
2022-11-01T14:03:22.260Z,16.62
2022-11-01T14:06:38.132Z,16.65
2022-11-01T14:09:50.057Z,16.69
2022-11-01T14:13:16.382Z,16.66
2022-11-01T14:16:25.116Z,16.69
2022-11-01T14:19:33.564Z,16.57
2022-11-01T14:22:43.573Z,16.63
2022-11-01T14:26:38.483Z,16.59
2022-11-01T14:29:51.644Z,16.65
2022-11-01T14:33:04.221Z,16.72
2022-11-01T14:36:15.856Z,16.69
2022-11-01T14:39:37.483Z,16.67
2022-11-01T14:42:51.480Z,16.68
2022-11-01T14:46:04.138Z,16.65
2022-11-01T14:49:29.521Z,16.65
2022-11-01T14:52:46.572Z,16.63
2022-11-01T14:56:13.892Z,16.55
2022-11-01T14:59:27.243Z,16.50
2022-11-01T15:02:36.098Z,16.35
2022-11-01T15:05:50.918Z,16.24
2022-11-01T15:09:00.493Z,16.14
2022-11-01T15:12:12.446Z,16.08
2022-11-01T15:15:26.497Z,15.95
2022-11-01T15:18:35.625Z,15.79
2022-11-01T15:21:47.613Z,15.73
2022-11-01T15:25:01.459Z,15.65
2022-11-01T15:28:20.241Z,15.57
2022-11-01T15:31:31.889Z,15.44
2022-11-01T15:34:40.261Z,15.37
2022-11-01T15:37:53.237Z,15.39
2022-11-01T15:41:22.317Z,15.43
2022-11-01T15:44:31.630Z,15.29
2022-11-01T15:47:47.514Z,15.12
2022-11-01T15:51:02.165Z,15.01
2022-11-01T15:54:35.497Z,14.92
2022-11-01T15:57:56.192Z,14.86
2022-11-01T16:01:13.180Z,14.78
2022-11-01T16:04:26.328Z,14.73
2022-11-01T16:07:37.493Z,14.70
2022-11-01T16:10:46.367Z,14.65
2022-11-01T16:14:01.873Z,14.61
2022-11-01T16:17:25.796Z,14.64
2022-11-01T16:20:40.969Z,14.53
2022-11-01T16:23:58.220Z,14.50
2022-11-01T16:27:08.716Z,14.45
2022-11-01T16:30:49.957Z,14.41
2022-11-01T16:34:03.134Z,14.39
2022-11-01T16:37:22.326Z,14.40
2022-11-01T16:40:31.863Z,14.35
2022-11-01T16:43:40.411Z,14.30
2022-11-01T16:46:48.858Z,14.27
2022-11-01T16:49:57.078Z,14.20
2022-11-01T16:53:11.472Z,14.16
2022-11-01T16:56:36.518Z,14.11
2022-11-01T16:59:46.544Z,14.09
2022-11-01T17:03:00.270Z,14.08
2022-11-01T17:06:09.027Z,14.04
2022-11-01T17:09:24.725Z,14.06
2022-11-01T17:12:35.786Z,13.96
2022-11-01T17:15:48.604Z,13.93
2022-11-01T17:19:01.889Z,13.92
2022-11-01T17:22:19.124Z,13.90
2022-11-01T17:25:31.555Z,13.88
2022-11-01T17:28:39.989Z,13.88
2022-11-01T17:31:48.287Z,13.86
2022-11-01T17:34:56.556Z,13.88
2022-11-01T17:38:06.866Z,13.80
2022-11-01T17:41:19.856Z,13.83
2022-11-01T17:44:28.319Z,13.89
2022-11-01T17:47:36.548Z,13.84
2022-11-01T17:50:45.311Z,13.86
2022-11-01T17:53:57.257Z,13.86
2022-11-01T17:57:06.824Z,13.83
2022-11-01T18:00:16.070Z,13.93
2022-11-01T18:03:26.288Z,13.90
2022-11-01T18:06:34.486Z,14.04
2022-11-01T18:09:42.859Z,13.97
2022-11-01T18:13:14.293Z,13.87
2022-11-01T18:16:33.715Z,13.76
2022-11-01T18:19:55.824Z,13.68
2022-11-01T18:23:09.662Z,13.77
2022-11-01T18:26:22.894Z,13.81
2022-11-01T18:29:35.265Z,13.77
2022-11-01T18:32:57.466Z,13.82
2022-11-01T18:36:15.824Z,13.90
2022-11-01T18:39:36.503Z,13.95
2022-11-01T18:42:48.042Z,13.89
2022-11-01T18:46:23.293Z,13.88
2022-11-01T18:49:29.171Z,13.95
2022-11-01T18:52:37.862Z,13.85
2022-11-01T18:55:49.904Z,13.84
2022-11-01T18:59:00.338Z,13.81
2022-11-01T19:02:19.460Z,13.86
2022-11-01T19:05:28.428Z,13.67
2022-11-01T19:08:36.726Z,13.73
2022-11-01T19:11:48.922Z,13.78
2022-11-01T19:15:03.105Z,13.79
2022-11-01T19:18:20.988Z,13.67
2022-11-01T19:21:36.136Z,13.73
2022-11-01T19:24:45.744Z,13.73
2022-11-01T19:27:57.827Z,13.72
2022-11-01T19:31:21.618Z,13.72
2022-11-01T19:34:36.991Z,13.66
2022-11-01T19:37:47.276Z,13.64
2022-11-01T19:40:56.709Z,13.57
2022-11-01T19:44:16.581Z,13.57
2022-11-01T19:47:40.332Z,13.55
2022-11-01T19:50:50.839Z,13.55
2022-11-01T19:54:01.774Z,13.48
2022-11-01T19:57:28.067Z,13.48
2022-11-01T20:00:39.928Z,13.45
2022-11-01T20:03:52.551Z,13.45
2022-11-01T20:07:13.740Z,13.46
2022-11-01T20:10:21.889Z,13.50
2022-11-01T20:13:30.187Z,13.38
2022-11-01T20:16:38.674Z,13.21
2022-11-01T20:19:47.062Z,13.09
2022-11-01T20:23:20.281Z,13.06
2022-11-01T20:26:25.857Z,13.11
2022-11-01T20:29:34.660Z,12.93
2022-11-01T20:32:43.298Z,12.78
2022-11-01T20:35:52.837Z,12.54
2022-11-01T20:39:03.172Z,12.38
2022-11-01T20:42:11.672Z,12.37
2022-11-01T20:45:20.209Z,12.28
2022-11-01T20:48:28.903Z,12.30
2022-11-01T20:51:37.616Z,12.14
2022-11-01T20:54:47.589Z,12.14
2022-11-01T20:57:56.249Z,11.99
2022-11-01T21:01:05.675Z,11.92
2022-11-01T21:04:14.584Z,12.08
2022-11-01T21:07:23.026Z,11.88
2022-11-01T21:10:36.128Z,11.79
2022-11-01T21:13:46.770Z,11.85
2022-11-01T21:16:58.985Z,12.01
2022-11-01T21:20:23.949Z,12.07
2022-11-01T21:23:35.851Z,12.14
2022-11-01T21:26:45.875Z,12.16
2022-11-01T21:30:02.359Z,12.03
2022-11-01T21:33:32.680Z,11.93
2022-11-01T21:36:43.483Z,11.85
2022-11-01T21:40:04.292Z,11.81
2022-11-01T21:43:31.725Z,11.73
2022-11-01T21:46:40.078Z,11.71
2022-11-01T21:49:49.059Z,11.64
2022-11-01T21:52:57.414Z,11.67
2022-11-01T21:56:06.525Z,11.58
2022-11-01T21:59:16.519Z,11.62
2022-11-01T22:02:28.201Z,11.68
2022-11-01T22:05:36.827Z,11.74
2022-11-01T22:08:45.133Z,11.40
2022-11-01T22:11:53.929Z,11.13
2022-11-01T22:15:03.732Z,10.95
2022-11-01T22:18:12.080Z,10.86
2022-11-01T22:21:20.343Z,10.74
2022-11-01T22:24:28.575Z,10.62
2022-11-01T22:27:36.812Z,10.52
2022-11-01T22:30:46.397Z,10.55
2022-11-01T22:33:56.802Z,10.37
2022-11-01T22:37:13.576Z,10.28
2022-11-01T22:40:22.209Z,10.26
2022-11-01T22:43:30.903Z,10.14
2022-11-01T22:46:50.270Z,10.03
2022-11-01T22:50:04.143Z,9.99
2022-11-01T22:53:16.107Z,9.89
2022-11-01T22:56:24.734Z,9.86
2022-11-01T22:59:36.685Z,9.74
2022-11-01T23:02:47.436Z,9.72
2022-11-01T23:06:00.074Z,9.75
2022-11-01T23:09:16.604Z,9.80
2022-11-01T23:12:43.009Z,9.73
2022-11-01T23:15:52.672Z,9.78
2022-11-01T23:19:08.462Z,9.80
2022-11-01T23:22:20.860Z,9.78
2022-11-01T23:25:30.282Z,9.93
2022-11-01T23:28:43.998Z,9.62
2022-11-01T23:31:52.129Z,9.51
2022-11-01T23:35:13.470Z,9.40
2022-11-01T23:38:35.620Z,9.27
2022-11-01T23:41:47.599Z,9.21
2022-11-01T23:44:57.803Z,9.15
2022-11-01T23:48:09.099Z,9.12
2022-11-01T23:51:22.377Z,9.19
2022-11-01T23:54:39.880Z,9.12
2022-11-01T23:57:48.123Z,9.30
